Aviation Digital Data Service (ADDS)

Output produced by METARs form (0427 UTC 03 September 2015)
found at http://www.aviationweather.gov/adds/metars/
 
KTHV 030353Z AUTO 00000KT 5SM BR CLR 19/18 A2995 RMK AO2 SLP140 T01940183
KTHV 030253Z AUTO 00000KT 7SM CLR 20/18 A2995 RMK AO2 SLP140 T02000183 51007
KTHV 030153Z AUTO 11003KT 8SM CLR 21/19 A2995 RMK AO2 SLP140 T02110189
KTHV 030053Z AUTO 00000KT 7SM CLR 22/20 A2994 RMK AO2 SLP136 T02170200
KTHV 022353Z AUTO 00000KT 6SM HZ CLR 23/21 A2993 RMK AO2 SLP134 T02330206 10317 20233 58005
KTHV 022253Z AUTO 28004KT 8SM CLR 27/21 A2993 RMK AO2 SLP134 T02720206
KTHV 022153Z AUTO 21003KT 8SM CLR 27/22 A2995 RMK AO2 LTG DSNT S SLP140 T02720222
KTHV 022053Z AUTO 03003KT 10SM CLR 31/19 A2995 RMK AO2 LTG DSNT SW AND W SLP139 T03110189 56017
KTHV 021953Z AUTO VRB03KT 10SM CLR 32/20 A2995 RMK AO2 SLP141 T03170200
KTHV 021853Z AUTO 36004KT 10SM CLR 31/20 A2998 RMK AO2 SLP149 T03110200
KTHV 021753Z AUTO VRB05KT 10SM CLR 31/20 A3000 RMK AO2 SLP155 T03110200 10311 20189 58020
KTHV 021653Z AUTO 34007KT 10SM CLR 30/20 A3002 RMK AO2 SLP164 T03000200
KTHV 021553Z AUTO 35005KT 10SM CLR 29/20 A3004 RMK AO2 SLP172 T02940200
KTHV 021453Z AUTO 35005KT 10SM CLR 28/19 A3005 RMK AO2 SLP175 T02780194 58005
KTHV 021353Z AUTO 00000KT 8SM CLR 25/20 A3006 RMK AO2 SLP179 T02500200
KTHV 021253Z AUTO 00000KT 5SM BR SCT055 21/19 A3006 RMK AO2 SLP180 T02110194
KTHV 021153Z AUTO 00000KT 3SM BR FEW060 19/18 A3007 RMK AO2 SLP182 7//// T01890178 10189 20156 53006
KTHV 021127Z AUTO 00000KT 3SM BR BKN060 18/17 A3007 RMK AO2 T01780167
KTHV 021100Z AUTO 00000KT 2 1/2SM BR FEW060 17/16 A3006 RMK AO2 T01670156
KTHV 021053Z AUTO 00000KT 2SM BR CLR 16/16 A3006 RMK AO2 SLP177 T01610156
KTHV 021040Z AUTO 00000KT 3/4SM BR CLR 16/16 A3005 RMK AO2 T01610156
KTHV 021037Z AUTO 00000KT 1 3/4SM BR CLR 16/16 A3005 RMK AO2 VIS 1V3 T01610156
KTHV 021005Z AUTO 00000KT 2 1/2SM BR CLR 16/15 A3005 RMK AO2 T01610150
KTHV 021002Z AUTO 00000KT 1 1/4SM BR CLR 16/16 A3005 RMK AO2 T01610156
KTHV 020953Z AUTO 00000KT 3/4SM BR CLR 16/15 A3005 RMK AO2 SLP174 T01610150
KTHV 020951Z AUTO 00000KT 1SM BR CLR 16/16 A3005 RMK AO2 VIS 1/2V2
KTHV 020941Z AUTO 00000KT 2SM BR CLR 16/16 A3005 RMK AO2 T01610156
KTHV 020934Z AUTO 00000KT 1 3/4SM BR CLR 16/16 A3005 RMK AO2 T01610156
KTHV 020923Z AUTO 00000KT 1SM BR CLR 16/16 A3004 RMK AO2 T01560156
KTHV 020916Z AUTO 00000KT 1 1/4SM BR CLR 16/16 A3004 RMK AO2 T01610156
KTHV 020859Z AUTO 00000KT 3/4SM BR CLR 16/16 A3005 RMK AO2 T01610156
KTHV 020853Z AUTO 00000KT 1 1/2SM BR CLR 16/16 A3005 RMK AO2 SLP173 T01610156 55005
KTHV 020847Z AUTO 00000KT 2SM BR CLR 16/16 A3005 RMK AO2
KTHV 020835Z AUTO 00000KT 3SM BR CLR 16/16 A3005 RMK AO2 T01610156
KTHV 020818Z AUTO 00000KT 2SM BR CLR 16/16 A3005 RMK AO2 T01610156
KTHV 020809Z AUTO 00000KT 2 1/2SM BR CLR 17/16 A3005 RMK AO2 T01670161
KTHV 020753Z AUTO 00000KT 3SM BR CLR 17/16 A3005 RMK AO2 SLP173 T01670161
KTHV 020751Z AUTO 00000KT 3SM BR CLR 17/16 A3005 RMK AO2
KTHV 020736Z AUTO 00000KT 2SM BR CLR 17/16 A3005 RMK AO2 T01670161
KTHV 020653Z AUTO 00000KT 3SM BR CLR 17/16 A3005 RMK AO2 SLP174 T01720161
KTHV 020553Z AUTO 00000KT 4SM BR CLR 17/16 A3006 RMK AO2 SLPNO T01720161 10217 20172 58003
KTHV 020453Z AUTO 00000KT 4SM BR CLR 17/17 A3007 RMK AO2 SLPNO T01720167 403110161
KTHV 020353Z AUTO 00000KT 6SM BR CLR 18/17 A3007 RMK AO2 SLPNO T01780172
KTHV 020253Z AUTO 00000KT 6SM BR CLR 19/18 A3007 RMK AO2 SLP181 T01890178 51011
KTHV 020153Z AUTO 00000KT 7SM CLR 19/18 A3006 RMK AO2 SLP179 T01890178
KTHV 020053Z AUTO 00000KT 8SM CLR 20/18 A3005 RMK AO2 SLP176 T02000183
KTHV 012353Z AUTO 00000KT 8SM CLR 22/21 A3004 RMK AO2 SLP171 6//// T02220206 10311 20222 53001
KTHV 012253Z AUTO 00000KT 10SM CLR 27/20 A3003 RMK AO2 SLP169 T02670200
KTHV 012153Z AUTO 01004KT 10SM CLR 30/17 A3003 RMK AO2 SLP167 T03000172
KTHV 012053Z AUTO 36005KT 10SM CLR 31/17 A3004 RMK AO2 SLP169 6//// T03060172 56010
KTHV 011953Z AUTO 34005KT 10SM CLR 31/17 A3004 RMK AO2 SLP169 T03110167
KTHV 011853Z AUTO 33007KT 10SM CLR 31/16 A3005 RMK AO2 SLP174 T03060161
KTHV 011753Z AUTO A3006 RMK AO2 SLPNO 6//// 58010 PWINO PNO $
KTHV 011653Z AUTO A3007 RMK AO2 SLPNO PWINO PNO $